sensor_id;sensor_type;location;lat;lon;timestamp;P1;durP1;ratioP1;P2;durP2;ratioP2
21046;SDS011;10682;50.874;3.656;2023-02-28T00:01:36;11.00;;;6.10;;
21046;SDS011;10682;50.874;3.656;2023-02-28T00:04:03;11.57;;;5.87;;
21046;SDS011;10682;50.874;3.656;2023-02-28T00:06:30;12.83;;;6.00;;
21046;SDS011;10682;50.874;3.656;2023-02-28T00:08:57;12.13;;;5.90;;
21046;SDS011;10682;50.874;3.656;2023-02-28T00:11:24;14.10;;;6.33;;
21046;SDS011;10682;50.874;3.656;2023-02-28T00:13:52;10.77;;;6.13;;
21046;SDS011;10682;50.874;3.656;2023-02-28T00:16:20;12.03;;;6.00;;
21046;SDS011;10682;50.874;3.656;2023-02-28T00:18:49;9.67;;;5.60;;
21046;SDS011;10682;50.874;3.656;2023-02-28T00:21:16;16.53;;;6.20;;
21046;SDS011;10682;50.874;3.656;2023-02-28T00:23:45;14.50;;;6.27;;
21046;SDS011;10682;50.874;3.656;2023-02-28T00:26:13;11.93;;;6.00;;
21046;SDS011;10682;50.874;3.656;2023-02-28T00:28:40;10.40;;;5.87;;
21046;SDS011;10682;50.874;3.656;2023-02-28T00:31:07;10.70;;;6.23;;
21046;SDS011;10682;50.874;3.656;2023-02-28T00:33:34;12.60;;;6.40;;
21046;SDS011;10682;50.874;3.656;2023-02-28T00:36:05;13.17;;;6.40;;
21046;SDS011;10682;50.874;3.656;2023-02-28T00:38:36;12.30;;;6.27;;
21046;SDS011;10682;50.874;3.656;2023-02-28T00:41:05;13.07;;;6.10;;
21046;SDS011;10682;50.874;3.656;2023-02-28T00:43:34;12.17;;;6.20;;
21046;SDS011;10682;50.874;3.656;2023-02-28T00:46:03;9.63;;;6.10;;
21046;SDS011;10682;50.874;3.656;2023-02-28T00:48:31;11.13;;;6.30;;
21046;SDS011;10682;50.874;3.656;2023-02-28T00:50:58;13.37;;;6.33;;
21046;SDS011;10682;50.874;3.656;2023-02-28T00:53:26;10.53;;;6.20;;
21046;SDS011;10682;50.874;3.656;2023-02-28T00:55:54;10.20;;;6.07;;
21046;SDS011;10682;50.874;3.656;2023-02-28T00:58:21;11.37;;;6.30;;
21046;SDS011;10682;50.874;3.656;2023-02-28T01:00:48;12.33;;;6.17;;
21046;SDS011;10682;50.874;3.656;2023-02-28T01:03:30;11.17;;;6.07;;
21046;SDS011;10682;50.874;3.656;2023-02-28T01:05:57;12.13;;;6.33;;
21046;SDS011;10682;50.874;3.656;2023-02-28T01:08:37;12.43;;;5.93;;
21046;SDS011;10682;50.874;3.656;2023-02-28T01:11:11;11.07;;;6.20;;
21046;SDS011;10682;50.874;3.656;2023-02-28T01:13:40;11.20;;;6.60;;
21046;SDS011;10682;50.874;3.656;2023-02-28T01:16:08;10.23;;;5.87;;
21046;SDS011;10682;50.874;3.656;2023-02-28T01:18:35;11.37;;;6.30;;
21046;SDS011;10682;50.874;3.656;2023-02-28T01:21:04;11.63;;;5.77;;
21046;SDS011;10682;50.874;3.656;2023-02-28T01:23:33;10.57;;;6.10;;
21046;SDS011;10682;50.874;3.656;2023-02-28T01:26:08;12.27;;;6.23;;
21046;SDS011;10682;50.874;3.656;2023-02-28T01:28:47;11.33;;;6.20;;
21046;SDS011;10682;50.874;3.656;2023-02-28T01:31:17;11.77;;;6.27;;
21046;SDS011;10682;50.874;3.656;2023-02-28T01:33:45;11.37;;;5.97;;
21046;SDS011;10682;50.874;3.656;2023-02-28T01:36:13;10.17;;;6.13;;
21046;SDS011;10682;50.874;3.656;2023-02-28T01:38:46;11.23;;;6.27;;
21046;SDS011;10682;50.874;3.656;2023-02-28T01:41:18;9.80;;;5.50;;
21046;SDS011;10682;50.874;3.656;2023-02-28T01:46:16;12.70;;;6.27;;
21046;SDS011;10682;50.874;3.656;2023-02-28T01:48:46;12.83;;;6.50;;
21046;SDS011;10682;50.874;3.656;2023-02-28T01:51:29;10.97;;;5.80;;
21046;SDS011;10682;50.874;3.656;2023-02-28T01:54:27;10.23;;;6.10;;
21046;SDS011;10682;50.874;3.656;2023-02-28T01:56:59;11.30;;;6.00;;
21046;SDS011;10682;50.874;3.656;2023-02-28T01:59:43;11.30;;;6.30;;
21046;SDS011;10682;50.874;3.656;2023-02-28T02:02:20;11.83;;;6.13;;
21046;SDS011;10682;50.874;3.656;2023-02-28T02:07:39;11.17;;;5.63;;
21046;SDS011;10682;50.874;3.656;2023-02-28T02:10:17;8.87;;;6.00;;
21046;SDS011;10682;50.874;3.656;2023-02-28T02:19:13;11.77;;;6.30;;
21046;SDS011;10682;50.874;3.656;2023-02-28T02:36:30;11.87;;;6.57;;
21046;SDS011;10682;50.874;3.656;2023-02-28T02:39:14;10.33;;;6.30;;
21046;SDS011;10682;50.874;3.656;2023-02-28T02:42:00;10.93;;;6.13;;
21046;SDS011;10682;50.874;3.656;2023-02-28T02:45:34;10.57;;;6.97;;
21046;SDS011;10682;50.874;3.656;2023-02-28T02:47:55;12.00;;;6.57;;
21046;SDS011;10682;50.874;3.656;2023-02-28T02:50:27;13.10;;;6.60;;
21046;SDS011;10682;50.874;3.656;2023-02-28T02:53:02;15.17;;;7.20;;
21046;SDS011;10682;50.874;3.656;2023-02-28T02:55:31;13.97;;;6.97;;
21046;SDS011;10682;50.874;3.656;2023-02-28T02:58:04;14.17;;;6.83;;
21046;SDS011;10682;50.874;3.656;2023-02-28T03:00:37;14.10;;;6.60;;
21046;SDS011;10682;50.874;3.656;2023-02-28T03:03:12;10.83;;;6.60;;
21046;SDS011;10682;50.874;3.656;2023-02-28T03:05:50;12.83;;;6.60;;
21046;SDS011;10682;50.874;3.656;2023-02-28T03:08:17;14.27;;;6.90;;
21046;SDS011;10682;50.874;3.656;2023-02-28T03:10:45;12.17;;;7.17;;
21046;SDS011;10682;50.874;3.656;2023-02-28T03:25:29;11.10;;;6.57;;
21046;SDS011;10682;50.874;3.656;2023-02-28T03:31:33;11.20;;;7.03;;
21046;SDS011;10682;50.874;3.656;2023-02-28T03:34:08;12.93;;;7.30;;
21046;SDS011;10682;50.874;3.656;2023-02-28T03:36:44;12.83;;;7.27;;
21046;SDS011;10682;50.874;3.656;2023-02-28T03:39:16;14.10;;;7.10;;
21046;SDS011;10682;50.874;3.656;2023-02-28T03:41:50;11.30;;;6.83;;
21046;SDS011;10682;50.874;3.656;2023-02-28T03:44:24;12.13;;;6.27;;
21046;SDS011;10682;50.874;3.656;2023-02-28T03:47:16;12.47;;;6.80;;
21046;SDS011;10682;50.874;3.656;2023-02-28T03:49:59;13.20;;;7.33;;
21046;SDS011;10682;50.874;3.656;2023-02-28T03:59:26;12.57;;;7.40;;
21046;SDS011;10682;50.874;3.656;2023-02-28T04:02:04;12.33;;;7.17;;
21046;SDS011;10682;50.874;3.656;2023-02-28T04:04:31;13.03;;;7.70;;
21046;SDS011;10682;50.874;3.656;2023-02-28T04:07:06;14.63;;;7.37;;
21046;SDS011;10682;50.874;3.656;2023-02-28T04:09:35;12.97;;;7.73;;
21046;SDS011;10682;50.874;3.656;2023-02-28T04:12:02;13.90;;;7.83;;
21046;SDS011;10682;50.874;3.656;2023-02-28T04:14:30;14.40;;;7.30;;
21046;SDS011;10682;50.874;3.656;2023-02-28T04:16:57;14.33;;;7.60;;
21046;SDS011;10682;50.874;3.656;2023-02-28T04:19:24;12.30;;;7.90;;
21046;SDS011;10682;50.874;3.656;2023-02-28T04:21:51;13.10;;;7.87;;
21046;SDS011;10682;50.874;3.656;2023-02-28T04:24:21;12.20;;;7.50;;
21046;SDS011;10682;50.874;3.656;2023-02-28T04:26:53;14.30;;;7.80;;
21046;SDS011;10682;50.874;3.656;2023-02-28T04:29:23;15.20;;;8.00;;
21046;SDS011;10682;50.874;3.656;2023-02-28T04:31:56;13.60;;;7.97;;
21046;SDS011;10682;50.874;3.656;2023-02-28T04:34:31;15.07;;;8.43;;
21046;SDS011;10682;50.874;3.656;2023-02-28T04:36:59;13.03;;;7.60;;
21046;SDS011;10682;50.874;3.656;2023-02-28T04:39:39;13.93;;;8.43;;
21046;SDS011;10682;50.874;3.656;2023-02-28T04:42:07;13.37;;;7.53;;
21046;SDS011;10682;50.874;3.656;2023-02-28T04:44:35;15.87;;;8.30;;
21046;SDS011;10682;50.874;3.656;2023-02-28T04:47:02;11.87;;;7.70;;
21046;SDS011;10682;50.874;3.656;2023-02-28T04:49:29;13.87;;;7.37;;
21046;SDS011;10682;50.874;3.656;2023-02-28T04:51:56;13.10;;;7.93;;
21046;SDS011;10682;50.874;3.656;2023-02-28T04:54:23;16.07;;;7.80;;
21046;SDS011;10682;50.874;3.656;2023-02-28T04:56:50;19.13;;;9.03;;
21046;SDS011;10682;50.874;3.656;2023-02-28T04:59:17;19.10;;;8.73;;
21046;SDS011;10682;50.874;3.656;2023-02-28T05:01:46;16.60;;;9.57;;
21046;SDS011;10682;50.874;3.656;2023-02-28T05:04:15;14.40;;;8.60;;
21046;SDS011;10682;50.874;3.656;2023-02-28T05:06:42;14.80;;;8.40;;
21046;SDS011;10682;50.874;3.656;2023-02-28T05:09:10;15.57;;;8.97;;
21046;SDS011;10682;50.874;3.656;2023-02-28T05:11:38;19.10;;;9.37;;
21046;SDS011;10682;50.874;3.656;2023-02-28T05:14:14;15.63;;;9.10;;
21046;SDS011;10682;50.874;3.656;2023-02-28T05:16:42;13.93;;;8.60;;
21046;SDS011;10682;50.874;3.656;2023-02-28T05:19:09;14.80;;;8.53;;
21046;SDS011;10682;50.874;3.656;2023-02-28T05:21:38;16.43;;;8.80;;
21046;SDS011;10682;50.874;3.656;2023-02-28T05:24:09;11.20;;;7.70;;
21046;SDS011;10682;50.874;3.656;2023-02-28T05:26:39;13.53;;;8.77;;
21046;SDS011;10682;50.874;3.656;2023-02-28T05:29:08;19.73;;;9.07;;
21046;SDS011;10682;50.874;3.656;2023-02-28T05:31:36;16.00;;;8.43;;
21046;SDS011;10682;50.874;3.656;2023-02-28T05:34:03;16.97;;;8.73;;
21046;SDS011;10682;50.874;3.656;2023-02-28T05:36:30;16.97;;;9.27;;
21046;SDS011;10682;50.874;3.656;2023-02-28T05:38:58;19.03;;;9.57;;
21046;SDS011;10682;50.874;3.656;2023-02-28T05:41:25;20.70;;;9.50;;
21046;SDS011;10682;50.874;3.656;2023-02-28T05:43:53;16.43;;;8.63;;
21046;SDS011;10682;50.874;3.656;2023-02-28T05:46:20;18.23;;;8.63;;
21046;SDS011;10682;50.874;3.656;2023-02-28T05:48:48;15.73;;;9.27;;
21046;SDS011;10682;50.874;3.656;2023-02-28T05:51:15;16.43;;;9.20;;
21046;SDS011;10682;50.874;3.656;2023-02-28T05:53:43;14.70;;;9.10;;
21046;SDS011;10682;50.874;3.656;2023-02-28T05:56:10;18.07;;;9.30;;
21046;SDS011;10682;50.874;3.656;2023-02-28T05:58:37;18.40;;;9.20;;
21046;SDS011;10682;50.874;3.656;2023-02-28T06:01:33;16.20;;;9.73;;
21046;SDS011;10682;50.874;3.656;2023-02-28T06:04:03;18.33;;;9.47;;
21046;SDS011;10682;50.874;3.656;2023-02-28T06:06:37;18.20;;;9.80;;
21046;SDS011;10682;50.874;3.656;2023-02-28T06:09:05;14.43;;;9.13;;
21046;SDS011;10682;50.874;3.656;2023-02-28T06:11:33;16.63;;;9.30;;
21046;SDS011;10682;50.874;3.656;2023-02-28T06:16:47;15.97;;;10.00;;
21046;SDS011;10682;50.874;3.656;2023-02-28T06:19:14;15.47;;;9.10;;
21046;SDS011;10682;50.874;3.656;2023-02-28T06:21:42;14.83;;;9.53;;
21046;SDS011;10682;50.874;3.656;2023-02-28T06:24:11;17.60;;;9.97;;
21046;SDS011;10682;50.874;3.656;2023-02-28T06:26:38;16.43;;;9.63;;
21046;SDS011;10682;50.874;3.656;2023-02-28T06:29:09;17.83;;;10.67;;
21046;SDS011;10682;50.874;3.656;2023-02-28T06:34:10;18.43;;;11.30;;
21046;SDS011;10682;50.874;3.656;2023-02-28T06:36:39;20.50;;;11.83;;
21046;SDS011;10682;50.874;3.656;2023-02-28T06:39:07;16.53;;;10.63;;
21046;SDS011;10682;50.874;3.656;2023-02-28T06:41:35;19.00;;;10.90;;
21046;SDS011;10682;50.874;3.656;2023-02-28T06:44:20;20.00;;;10.67;;
21046;SDS011;10682;50.874;3.656;2023-02-28T06:46:47;18.67;;;10.73;;
21046;SDS011;10682;50.874;3.656;2023-02-28T06:49:15;21.50;;;11.03;;
21046;SDS011;10682;50.874;3.656;2023-02-28T06:51:43;30.10;;;14.30;;
21046;SDS011;10682;50.874;3.656;2023-02-28T06:54:13;35.90;;;16.00;;
21046;SDS011;10682;50.874;3.656;2023-02-28T06:56:41;26.43;;;10.70;;
21046;SDS011;10682;50.874;3.656;2023-02-28T06:59:08;23.33;;;10.70;;
21046;SDS011;10682;50.874;3.656;2023-02-28T07:01:35;18.63;;;9.03;;
21046;SDS011;10682;50.874;3.656;2023-02-28T07:04:02;17.43;;;9.30;;
21046;SDS011;10682;50.874;3.656;2023-02-28T07:06:32;18.97;;;10.00;;
21046;SDS011;10682;50.874;3.656;2023-02-28T07:08:59;16.87;;;10.23;;
21046;SDS011;10682;50.874;3.656;2023-02-28T07:14:38;17.53;;;9.63;;
21046;SDS011;10682;50.874;3.656;2023-02-28T07:17:08;16.67;;;9.63;;
21046;SDS011;10682;50.874;3.656;2023-02-28T07:19:38;18.37;;;9.43;;
21046;SDS011;10682;50.874;3.656;2023-02-28T07:22:06;16.23;;;8.80;;
21046;SDS011;10682;50.874;3.656;2023-02-28T07:24:33;15.67;;;8.73;;
21046;SDS011;10682;50.874;3.656;2023-02-28T07:27:01;19.50;;;9.43;;
21046;SDS011;10682;50.874;3.656;2023-02-28T07:29:28;15.03;;;7.70;;
21046;SDS011;10682;50.874;3.656;2023-02-28T07:31:55;19.57;;;7.80;;
21046;SDS011;10682;50.874;3.656;2023-02-28T07:34:22;13.63;;;7.70;;
21046;SDS011;10682;50.874;3.656;2023-02-28T07:36:52;14.80;;;8.17;;
21046;SDS011;10682;50.874;3.656;2023-02-28T07:39:20;14.90;;;8.00;;
21046;SDS011;10682;50.874;3.656;2023-02-28T07:41:48;19.30;;;8.03;;
21046;SDS011;10682;50.874;3.656;2023-02-28T07:44:21;17.23;;;8.77;;
21046;SDS011;10682;50.874;3.656;2023-02-28T07:46:48;17.97;;;7.57;;
21046;SDS011;10682;50.874;3.656;2023-02-28T07:49:15;16.67;;;7.60;;
21046;SDS011;10682;50.874;3.656;2023-02-28T07:51:42;21.33;;;8.87;;
21046;SDS011;10682;50.874;3.656;2023-02-28T07:54:09;18.07;;;9.10;;
21046;SDS011;10682;50.874;3.656;2023-02-28T07:56:36;15.63;;;8.33;;
21046;SDS011;10682;50.874;3.656;2023-02-28T07:59:03;14.20;;;8.03;;
21046;SDS011;10682;50.874;3.656;2023-02-28T08:01:30;19.57;;;7.80;;
21046;SDS011;10682;50.874;3.656;2023-02-28T08:03:58;15.67;;;8.40;;
21046;SDS011;10682;50.874;3.656;2023-02-28T08:09:28;16.67;;;8.37;;
21046;SDS011;10682;50.874;3.656;2023-02-28T08:11:56;15.77;;;8.07;;
21046;SDS011;10682;50.874;3.656;2023-02-28T08:14:23;13.13;;;7.40;;
21046;SDS011;10682;50.874;3.656;2023-02-28T08:16:50;18.30;;;7.80;;
21046;SDS011;10682;50.874;3.656;2023-02-28T08:19:17;16.03;;;7.87;;
21046;SDS011;10682;50.874;3.656;2023-02-28T08:21:44;14.47;;;7.20;;
21046;SDS011;10682;50.874;3.656;2023-02-28T08:24:11;16.17;;;7.53;;
21046;SDS011;10682;50.874;3.656;2023-02-28T08:26:38;12.67;;;6.90;;
21046;SDS011;10682;50.874;3.656;2023-02-28T08:29:05;13.00;;;7.30;;
21046;SDS011;10682;50.874;3.656;2023-02-28T08:31:32;12.67;;;7.57;;
21046;SDS011;10682;50.874;3.656;2023-02-28T08:34:08;17.73;;;7.37;;
21046;SDS011;10682;50.874;3.656;2023-02-28T08:36:38;15.23;;;7.47;;
21046;SDS011;10682;50.874;3.656;2023-02-28T08:39:06;15.50;;;7.10;;
21046;SDS011;10682;50.874;3.656;2023-02-28T08:41:33;16.60;;;7.43;;
21046;SDS011;10682;50.874;3.656;2023-02-28T08:44:00;14.33;;;7.40;;
21046;SDS011;10682;50.874;3.656;2023-02-28T08:46:28;12.30;;;7.27;;
21046;SDS011;10682;50.874;3.656;2023-02-28T08:48:57;14.87;;;6.57;;
21046;SDS011;10682;50.874;3.656;2023-02-28T08:51:28;14.23;;;7.10;;
21046;SDS011;10682;50.874;3.656;2023-02-28T08:53:59;14.80;;;7.27;;
21046;SDS011;10682;50.874;3.656;2023-02-28T08:56:27;15.63;;;8.00;;
21046;SDS011;10682;50.874;3.656;2023-02-28T08:58:55;16.03;;;7.17;;
21046;SDS011;10682;50.874;3.656;2023-02-28T09:01:24;19.63;;;7.50;;
21046;SDS011;10682;50.874;3.656;2023-02-28T09:03:55;15.53;;;7.33;;
21046;SDS011;10682;50.874;3.656;2023-02-28T09:06:24;18.93;;;7.30;;
21046;SDS011;10682;50.874;3.656;2023-02-28T09:08:56;14.33;;;6.70;;
21046;SDS011;10682;50.874;3.656;2023-02-28T09:11:27;14.17;;;6.97;;
21046;SDS011;10682;50.874;3.656;2023-02-28T09:13:57;14.97;;;6.30;;
21046;SDS011;10682;50.874;3.656;2023-02-28T09:16:26;12.57;;;5.83;;
21046;SDS011;10682;50.874;3.656;2023-02-28T09:18:53;13.33;;;6.30;;
21046;SDS011;10682;50.874;3.656;2023-02-28T09:21:20;11.90;;;5.43;;
21046;SDS011;10682;50.874;3.656;2023-02-28T09:23:48;11.70;;;5.33;;
21046;SDS011;10682;50.874;3.656;2023-02-28T09:26:17;12.30;;;5.10;;
21046;SDS011;10682;50.874;3.656;2023-02-28T09:28:48;11.07;;;5.40;;
21046;SDS011;10682;50.874;3.656;2023-02-28T09:31:18;9.10;;;5.10;;
21046;SDS011;10682;50.874;3.656;2023-02-28T09:33:55;8.80;;;4.53;;
21046;SDS011;10682;50.874;3.656;2023-02-28T09:36:23;7.47;;;4.20;;
21046;SDS011;10682;50.874;3.656;2023-02-28T09:39:08;9.67;;;5.20;;
21046;SDS011;10682;50.874;3.656;2023-02-28T09:41:46;12.03;;;5.00;;
21046;SDS011;10682;50.874;3.656;2023-02-28T09:44:31;9.03;;;5.00;;
21046;SDS011;10682;50.874;3.656;2023-02-28T09:50:08;9.47;;;4.60;;
21046;SDS011;10682;50.874;3.656;2023-02-28T09:52:57;10.13;;;4.53;;
21046;SDS011;10682;50.874;3.656;2023-02-28T09:55:28;10.43;;;4.30;;
21046;SDS011;10682;50.874;3.656;2023-02-28T09:58:20;8.13;;;4.53;;
21046;SDS011;10682;50.874;3.656;2023-02-28T10:10:37;6.13;;;3.63;;
21046;SDS011;10682;50.874;3.656;2023-02-28T10:16:11;4.30;;;2.90;;
21046;SDS011;10682;50.874;3.656;2023-02-28T10:18:46;7.40;;;3.60;;
21046;SDS011;10682;50.874;3.656;2023-02-28T10:21:24;5.33;;;2.47;;
21046;SDS011;10682;50.874;3.656;2023-02-28T10:24:12;4.27;;;2.30;;
21046;SDS011;10682;50.874;3.656;2023-02-28T10:27:18;3.00;;;2.10;;
21046;SDS011;10682;50.874;3.656;2023-02-28T10:29:57;3.83;;;2.17;;
21046;SDS011;10682;50.874;3.656;2023-02-28T10:32:31;5.40;;;2.37;;
21046;SDS011;10682;50.874;3.656;2023-02-28T10:35:06;7.17;;;2.57;;
21046;SDS011;10682;50.874;3.656;2023-02-28T10:37:44;7.30;;;2.50;;
21046;SDS011;10682;50.874;3.656;2023-02-28T10:43:01;2.43;;;2.00;;
21046;SDS011;10682;50.874;3.656;2023-02-28T10:51:15;7.27;;;2.60;;
21046;SDS011;10682;50.874;3.656;2023-02-28T10:56:26;3.53;;;2.40;;
21046;SDS011;10682;50.874;3.656;2023-02-28T11:01:42;7.33;;;2.70;;
21046;SDS011;10682;50.874;3.656;2023-02-28T11:09:32;5.97;;;2.80;;
21046;SDS011;10682;50.874;3.656;2023-02-28T11:12:10;5.53;;;2.67;;
21046;SDS011;10682;50.874;3.656;2023-02-28T11:15:40;5.53;;;2.50;;
21046;SDS011;10682;50.874;3.656;2023-02-28T11:21:03;5.13;;;2.47;;
21046;SDS011;10682;50.874;3.656;2023-02-28T11:23:31;5.33;;;2.40;;
21046;SDS011;10682;50.874;3.656;2023-02-28T11:26:03;3.97;;;2.00;;
21046;SDS011;10682;50.874;3.656;2023-02-28T11:28:41;3.37;;;2.10;;
21046;SDS011;10682;50.874;3.656;2023-02-28T11:33:47;3.93;;;2.10;;
21046;SDS011;10682;50.874;3.656;2023-02-28T11:36:20;2.60;;;1.93;;
21046;SDS011;10682;50.874;3.656;2023-02-28T11:39:04;3.27;;;1.93;;
21046;SDS011;10682;50.874;3.656;2023-02-28T11:45:21;3.83;;;1.97;;
21046;SDS011;10682;50.874;3.656;2023-02-28T11:57:03;3.87;;;2.10;;
21046;SDS011;10682;50.874;3.656;2023-02-28T12:12:15;2.67;;;1.93;;
21046;SDS011;10682;50.874;3.656;2023-02-28T12:15:05;4.20;;;2.13;;
21046;SDS011;10682;50.874;3.656;2023-02-28T12:23:50;4.33;;;2.10;;
21046;SDS011;10682;50.874;3.656;2023-02-28T12:26:50;3.13;;;2.13;;
21046;SDS011;10682;50.874;3.656;2023-02-28T12:32:01;5.33;;;2.53;;
21046;SDS011;10682;50.874;3.656;2023-02-28T12:34:44;9.00;;;2.00;;
21046;SDS011;10682;50.874;3.656;2023-02-28T12:37:25;3.67;;;2.00;;
21046;SDS011;10682;50.874;3.656;2023-02-28T12:40:01;4.17;;;2.40;;
21046;SDS011;10682;50.874;3.656;2023-02-28T12:42:36;3.23;;;2.27;;
21046;SDS011;10682;50.874;3.656;2023-02-28T12:45:10;3.40;;;1.70;;
21046;SDS011;10682;50.874;3.656;2023-02-28T12:47:52;3.97;;;2.00;;
21046;SDS011;10682;50.874;3.656;2023-02-28T12:50:29;4.00;;;2.10;;
21046;SDS011;10682;50.874;3.656;2023-02-28T12:56:12;4.47;;;2.37;;
21046;SDS011;10682;50.874;3.656;2023-02-28T12:59:18;4.47;;;2.40;;
21046;SDS011;10682;50.874;3.656;2023-02-28T13:10:51;6.07;;;2.20;;
21046;SDS011;10682;50.874;3.656;2023-02-28T13:13:24;3.93;;;2.07;;
21046;SDS011;10682;50.874;3.656;2023-02-28T13:21:28;3.63;;;1.90;;
21046;SDS011;10682;50.874;3.656;2023-02-28T13:24:03;4.43;;;1.97;;
21046;SDS011;10682;50.874;3.656;2023-02-28T13:32:18;2.40;;;1.97;;
21046;SDS011;10682;50.874;3.656;2023-02-28T13:40:41;3.57;;;1.83;;
21046;SDS011;10682;50.874;3.656;2023-02-28T13:43:07;2.70;;;1.90;;
21046;SDS011;10682;50.874;3.656;2023-02-28T13:45:35;5.20;;;2.50;;
21046;SDS011;10682;50.874;3.656;2023-02-28T13:48:22;3.40;;;2.27;;
21046;SDS011;10682;50.874;3.656;2023-02-28T13:50:53;3.77;;;2.27;;
21046;SDS011;10682;50.874;3.656;2023-02-28T13:53:32;2.97;;;2.30;;
21046;SDS011;10682;50.874;3.656;2023-02-28T13:56:40;5.67;;;2.60;;
21046;SDS011;10682;50.874;3.656;2023-02-28T13:59:29;6.67;;;2.53;;
21046;SDS011;10682;50.874;3.656;2023-02-28T14:05:34;2.73;;;2.00;;
21046;SDS011;10682;50.874;3.656;2023-02-28T14:08:12;4.77;;;2.40;;
21046;SDS011;10682;50.874;3.656;2023-02-28T14:10:48;4.97;;;2.40;;
21046;SDS011;10682;50.874;3.656;2023-02-28T14:13:39;3.30;;;2.20;;
21046;SDS011;10682;50.874;3.656;2023-02-28T14:16:13;3.23;;;2.20;;
21046;SDS011;10682;50.874;3.656;2023-02-28T14:18:51;3.43;;;2.27;;
21046;SDS011;10682;50.874;3.656;2023-02-28T14:21:38;3.07;;;2.20;;
21046;SDS011;10682;50.874;3.656;2023-02-28T14:35:29;3.70;;;2.50;;
21046;SDS011;10682;50.874;3.656;2023-02-28T14:38:05;3.93;;;2.40;;
21046;SDS011;10682;50.874;3.656;2023-02-28T14:40:41;6.63;;;2.70;;
21046;SDS011;10682;50.874;3.656;2023-02-28T14:43:19;5.40;;;2.60;;
21046;SDS011;10682;50.874;3.656;2023-02-28T14:45:53;7.43;;;2.67;;
21046;SDS011;10682;50.874;3.656;2023-02-28T14:48:30;4.47;;;2.40;;
21046;SDS011;10682;50.874;3.656;2023-02-28T14:50:58;4.07;;;2.60;;
21046;SDS011;10682;50.874;3.656;2023-02-28T14:53:29;4.20;;;2.57;;
21046;SDS011;10682;50.874;3.656;2023-02-28T14:56:02;4.73;;;2.70;;
21046;SDS011;10682;50.874;3.656;2023-02-28T14:58:31;4.33;;;2.90;;
21046;SDS011;10682;50.874;3.656;2023-02-28T15:01:00;3.77;;;2.40;;
21046;SDS011;10682;50.874;3.656;2023-02-28T15:03:37;6.63;;;3.13;;
21046;SDS011;10682;50.874;3.656;2023-02-28T15:06:14;4.83;;;3.00;;
21046;SDS011;10682;50.874;3.656;2023-02-28T15:08:44;8.67;;;2.87;;
21046;SDS011;10682;50.874;3.656;2023-02-28T15:11:16;6.27;;;2.87;;
21046;SDS011;10682;50.874;3.656;2023-02-28T15:13:48;4.03;;;2.93;;
21046;SDS011;10682;50.874;3.656;2023-02-28T15:18:53;5.07;;;2.83;;
21046;SDS011;10682;50.874;3.656;2023-02-28T15:21:23;4.50;;;2.80;;
21046;SDS011;10682;50.874;3.656;2023-02-28T15:24:04;6.53;;;2.83;;
21046;SDS011;10682;50.874;3.656;2023-02-28T15:26:43;3.50;;;2.80;;
21046;SDS011;10682;50.874;3.656;2023-02-28T15:29:27;4.53;;;2.87;;
21046;SDS011;10682;50.874;3.656;2023-02-28T15:31:57;4.20;;;3.03;;
21046;SDS011;10682;50.874;3.656;2023-02-28T15:34:37;6.33;;;2.67;;
21046;SDS011;10682;50.874;3.656;2023-02-28T15:40:04;3.87;;;2.73;;
21046;SDS011;10682;50.874;3.656;2023-02-28T15:42:37;6.30;;;3.03;;
21046;SDS011;10682;50.874;3.656;2023-02-28T15:45:05;5.03;;;3.07;;
21046;SDS011;10682;50.874;3.656;2023-02-28T15:47:52;3.70;;;2.67;;
21046;SDS011;10682;50.874;3.656;2023-02-28T15:50:21;5.33;;;3.17;;
21046;SDS011;10682;50.874;3.656;2023-02-28T15:52:48;6.37;;;2.90;;
21046;SDS011;10682;50.874;3.656;2023-02-28T15:55:26;6.67;;;3.30;;
21046;SDS011;10682;50.874;3.656;2023-02-28T15:57:56;4.23;;;2.70;;
21046;SDS011;10682;50.874;3.656;2023-02-28T16:00:28;4.17;;;3.17;;
21046;SDS011;10682;50.874;3.656;2023-02-28T16:02:59;5.83;;;2.90;;
21046;SDS011;10682;50.874;3.656;2023-02-28T16:05:28;4.73;;;3.07;;
21046;SDS011;10682;50.874;3.656;2023-02-28T16:07:59;6.30;;;2.87;;
21046;SDS011;10682;50.874;3.656;2023-02-28T16:10:42;5.60;;;3.17;;
21046;SDS011;10682;50.874;3.656;2023-02-28T16:13:10;4.50;;;2.67;;
21046;SDS011;10682;50.874;3.656;2023-02-28T16:15:41;5.53;;;3.20;;
21046;SDS011;10682;50.874;3.656;2023-02-28T16:18:11;6.93;;;3.30;;
21046;SDS011;10682;50.874;3.656;2023-02-28T16:20:39;4.50;;;3.10;;
21046;SDS011;10682;50.874;3.656;2023-02-28T16:23:06;6.47;;;3.20;;
21046;SDS011;10682;50.874;3.656;2023-02-28T16:25:41;5.13;;;3.30;;
21046;SDS011;10682;50.874;3.656;2023-02-28T16:28:20;8.03;;;3.30;;
21046;SDS011;10682;50.874;3.656;2023-02-28T16:30:57;5.90;;;3.07;;
21046;SDS011;10682;50.874;3.656;2023-02-28T16:33:30;6.63;;;3.13;;
21046;SDS011;10682;50.874;3.656;2023-02-28T16:35:59;5.23;;;3.20;;
21046;SDS011;10682;50.874;3.656;2023-02-28T16:38:26;8.93;;;3.43;;
21046;SDS011;10682;50.874;3.656;2023-02-28T16:40:55;6.23;;;3.27;;
21046;SDS011;10682;50.874;3.656;2023-02-28T16:43:25;8.00;;;3.43;;
21046;SDS011;10682;50.874;3.656;2023-02-28T16:45:56;6.43;;;3.63;;
21046;SDS011;10682;50.874;3.656;2023-02-28T16:48:26;6.70;;;3.60;;
21046;SDS011;10682;50.874;3.656;2023-02-28T16:50:54;7.30;;;3.50;;
21046;SDS011;10682;50.874;3.656;2023-02-28T16:53:21;6.97;;;3.17;;
21046;SDS011;10682;50.874;3.656;2023-02-28T16:55:48;12.83;;;3.20;;
21046;SDS011;10682;50.874;3.656;2023-02-28T16:58:17;8.53;;;3.50;;
21046;SDS011;10682;50.874;3.656;2023-02-28T17:00:45;7.53;;;3.33;;
21046;SDS011;10682;50.874;3.656;2023-02-28T17:03:28;7.27;;;3.23;;
21046;SDS011;10682;50.874;3.656;2023-02-28T17:05:58;13.83;;;3.43;;
21046;SDS011;10682;50.874;3.656;2023-02-28T17:08:26;9.30;;;3.37;;
21046;SDS011;10682;50.874;3.656;2023-02-28T17:10:55;6.63;;;3.63;;
21046;SDS011;10682;50.874;3.656;2023-02-28T17:13:22;7.13;;;3.43;;
21046;SDS011;10682;50.874;3.656;2023-02-28T17:15:50;6.30;;;3.27;;
21046;SDS011;10682;50.874;3.656;2023-02-28T17:18:18;5.90;;;3.60;;
21046;SDS011;10682;50.874;3.656;2023-02-28T17:20:47;9.23;;;3.50;;
21046;SDS011;10682;50.874;3.656;2023-02-28T17:23:15;6.17;;;3.70;;
21046;SDS011;10682;50.874;3.656;2023-02-28T17:25:42;6.90;;;3.47;;
21046;SDS011;10682;50.874;3.656;2023-02-28T17:28:22;8.97;;;3.90;;
21046;SDS011;10682;50.874;3.656;2023-02-28T17:30:50;6.23;;;3.57;;
21046;SDS011;10682;50.874;3.656;2023-02-28T17:33:17;7.87;;;3.80;;
21046;SDS011;10682;50.874;3.656;2023-02-28T17:35:44;9.30;;;4.00;;
21046;SDS011;10682;50.874;3.656;2023-02-28T17:38:14;7.70;;;3.50;;
21046;SDS011;10682;50.874;3.656;2023-02-28T17:40:44;7.40;;;3.70;;
21046;SDS011;10682;50.874;3.656;2023-02-28T17:43:11;7.63;;;4.03;;
21046;SDS011;10682;50.874;3.656;2023-02-28T17:45:38;10.97;;;5.73;;
21046;SDS011;10682;50.874;3.656;2023-02-28T17:48:06;9.63;;;5.40;;
21046;SDS011;10682;50.874;3.656;2023-02-28T17:50:36;6.87;;;4.70;;
21046;SDS011;10682;50.874;3.656;2023-02-28T17:53:03;7.63;;;4.43;;
21046;SDS011;10682;50.874;3.656;2023-02-28T17:55:30;7.53;;;4.30;;
21046;SDS011;10682;50.874;3.656;2023-02-28T17:57:57;7.40;;;4.40;;
21046;SDS011;10682;50.874;3.656;2023-02-28T18:00:24;8.10;;;4.43;;
21046;SDS011;10682;50.874;3.656;2023-02-28T18:02:51;6.33;;;3.80;;
21046;SDS011;10682;50.874;3.656;2023-02-28T18:05:18;7.43;;;4.27;;
21046;SDS011;10682;50.874;3.656;2023-02-28T18:07:45;13.70;;;4.23;;
21046;SDS011;10682;50.874;3.656;2023-02-28T18:10:15;8.63;;;4.40;;
21046;SDS011;10682;50.874;3.656;2023-02-28T18:12:48;5.47;;;4.33;;
21046;SDS011;10682;50.874;3.656;2023-02-28T18:15:18;11.07;;;4.90;;